Time;durP1;ratioP1;P1;durP2;ratioP2;P2;SDS_P1;SDS_P2;PMS_P1;PMS_P2;Temp;Humidity;BMP_temperature;BMP_pressure;BME280_temperature;BME280_humidity;BME280_pressure;Samples;Min_cycle;Max_cycle;Signal;HPM_P1;HPM_P2
2022/05/20 00:01:29;;;;;;;38.22;28.90;;;;;;;12.46;93.80;102031.38;5081332;28;20032;-80
2022/05/20 00:03:55;;;;;;;36.45;28.23;;;;;;;12.42;93.58;102029.84;5097089;28;20487;-80
2022/05/20 00:06:20;;;;;;;42.60;29.83;;;;;;;12.41;93.92;102033.50;5093624;28;20051;-81
2022/05/20 00:08:45;;;;;;;40.83;28.48;;;;;;;12.37;93.21;102032.81;5075612;28;20047;-80
2022/05/20 00:11:11;;;;;;;34.75;26.90;;;;;;;12.36;93.76;102030.22;5072385;28;20036;-80
2022/05/20 00:13:36;;;;;;;38.33;27.98;;;;;;;12.31;93.38;102025.09;5073792;28;20024;-80
2022/05/20 00:16:02;;;;;;;39.67;28.05;;;;;;;12.28;93.52;102021.72;5072178;28;20031;-80
2022/05/20 00:18:27;;;;;;;36.72;27.73;;;;;;;12.23;93.18;102025.56;5096104;27;20027;-80
2022/05/20 00:20:53;;;;;;;43.75;30.88;;;;;;;12.19;93.74;102026.72;5085045;28;20066;-80
2022/05/20 00:23:19;;;;;;;38.38;29.80;;;;;;;12.15;93.49;102030.59;5104287;28;20032;-80
2022/05/20 00:25:47;;;;;;;40.97;28.90;;;;;;;12.12;93.26;102028.06;5075301;28;20039;-80
2022/05/20 00:28:19;;;;;;;37.00;27.05;;;;;;;12.10;93.86;102024.59;5094686;28;20212;-79
2022/05/20 00:30:46;;;;;;;42.13;29.27;;;;;;;12.10;93.96;102024.59;5076289;28;20028;-79
2022/05/20 00:33:13;;;;;;;39.22;29.65;;;;;;;12.10;93.63;102024.59;5103997;28;20491;-79
2022/05/20 00:35:38;;;;;;;38.38;27.10;;;;;;;12.09;93.00;102017.47;5102165;28;20035;-80
2022/05/20 00:38:04;;;;;;;38.92;28.23;;;;;;;12.06;93.00;102018.53;5080852;28;20031;-79
2022/05/20 00:40:29;;;;;;;37.47;28.27;;;;;;;12.03;93.04;102012.47;5073993;28;20032;-80
2022/05/20 00:43:07;;;;;;;39.05;27.67;;;;;;;12.01;93.29;102012.56;5075036;28;20107;-79
2022/05/20 00:45:33;;;;;;;39.80;29.98;;;;;;;11.97;92.99;102012.84;5124353;27;20110;-79
2022/05/20 00:47:58;;;;;;;36.90;28.00;;;;;;;11.95;92.94;102014.72;5116769;27;20059;-79
2022/05/20 00:50:23;;;;;;;39.78;28.25;;;;;;;11.93;92.62;102016.63;5104434;27;20088;-80
2022/05/20 00:52:49;;;;;;;38.55;26.75;;;;;;;11.84;92.60;102010.84;5083859;28;20522;-80
2022/05/20 00:55:17;;;;;;;39.30;27.52;;;;;;;11.81;92.53;102012.84;5111223;28;20046;-80
2022/05/20 00:57:49;;;;;;;37.45;26.58;;;;;;;11.76;92.64;102001.47;5090321;28;20039;-80
2022/05/20 01:00:20;;;;;;;37.13;27.23;;;;;;;11.70;92.81;102006.28;5100765;27;20548;-78
2022/05/20 01:02:48;;;;;;;37.80;28.63;;;;;;;11.66;93.07;102001.19;5101495;27;20141;-79
2022/05/20 01:05:27;;;;;;;39.25;26.67;;;;;;;11.68;92.87;102012.72;5083071;28;20087;-78
2022/05/20 01:07:54;;;;;;;43.53;27.90;;;;;;;11.66;92.95;102014.66;5075233;28;20032;-79
2022/05/20 01:10:19;;;;;;;37.58;26.40;;;;;;;11.64;92.60;102011.16;5075871;28;20028;-81
2022/05/20 01:12:46;;;;;;;37.22;27.55;;;;;;;11.61;92.36;102009.53;5093356;28;20103;-80
2022/05/20 01:15:11;;;;;;;33.47;24.60;;;;;;;11.58;92.72;102012.41;5086002;28;20085;-80
2022/05/20 01:17:38;;;;;;;41.35;27.35;;;;;;;11.53;92.85;102015.34;5099770;28;20491;-80
2022/05/20 01:20:09;;;;;;;37.22;26.38;;;;;;;11.56;93.22;102025.09;5108015;27;20052;-80
2022/05/20 01:22:40;;;;;;;37.80;25.35;;;;;;;11.57;92.79;102015.16;5095117;28;20487;-79
2022/05/20 01:25:09;;;;;;;35.17;25.80;;;;;;;11.58;93.12;102016.91;5077696;28;20116;-80
2022/05/20 01:27:42;;;;;;;36.22;25.92;;;;;;;11.58;93.28;102009.72;5099335;28;20106;-79
2022/05/20 01:30:10;;;;;;;37.63;27.25;;;;;;;11.57;93.87;102009.78;5081733;28;20023;-79
2022/05/20 01:32:35;;;;;;;35.92;26.88;;;;;;;11.60;93.50;101993.47;5076548;28;20118;-79
2022/05/20 01:35:02;;;;;;;37.72;27.45;;;;;;;11.62;93.32;101991.53;5079481;28;20139;-79
2022/05/20 01:37:27;;;;;;;38.83;27.60;;;;;;;11.63;93.42;101995.97;5099724;28;20094;-79
2022/05/20 01:39:53;;;;;;;39.28;26.88;;;;;;;11.60;93.28;101996.16;5095669;28;20500;-80
2022/05/20 01:42:28;;;;;;;37.38;26.13;;;;;;;11.63;92.80;101993.28;5109534;28;20023;-80
2022/05/20 01:45:05;;;;;;;39.00;27.15;;;;;;;11.65;93.85;101992.22;5098708;27;20394;-79
2022/05/20 01:47:43;;;;;;;40.40;27.75;;;;;;;11.65;93.32;101985.97;5087644;28;20020;-79
2022/05/20 01:50:16;;;;;;;36.60;26.73;;;;;;;11.60;93.04;101972.78;5103188;28;20031;-79
2022/05/20 01:53:02;;;;;;;36.65;25.77;;;;;;;11.61;92.98;101974.53;5089366;28;20020;-79
2022/05/20 01:55:35;;;;;;;34.35;24.42;;;;;;;11.53;92.93;101980.34;5083711;28;20538;-79
2022/05/20 01:58:18;;;;;;;35.47;26.10;;;;;;;11.50;92.97;101977.84;5095245;28;20028;-79
2022/05/20 02:00:46;;;;;;;34.85;24.90;;;;;;;11.41;92.96;101981.09;5097115;27;20145;-79
2022/05/20 02:03:21;;;;;;;35.08;24.40;;;;;;;11.32;93.13;101974.41;5090562;28;20028;-79
2022/05/20 02:05:55;;;;;;;32.30;22.98;;;;;;;11.33;92.91;101975.28;5080617;28;20032;-79
2022/05/20 02:08:26;;;;;;;34.70;24.33;;;;;;;11.25;93.05;101966.81;5092515;28;20058;-79
2022/05/20 02:11:04;;;;;;;35.90;23.88;;;;;;;11.30;93.50;101965.56;5079425;28;20038;-79
2022/05/20 02:13:33;;;;;;;32.65;22.30;;;;;;;11.30;93.82;101972.78;5099917;28;20067;-79
2022/05/20 02:16:08;;;;;;;33.08;19.08;;;;;;;11.27;94.21;101964.88;5092805;28;20114;-79
2022/05/20 02:18:42;;;;;;;29.08;19.02;;;;;;;11.22;93.39;101969.69;5102442;27;20051;-79
2022/05/20 02:21:13;;;;;;;31.70;19.63;;;;;;;11.19;93.42;101974.25;5096926;28;20137;-79
2022/05/20 02:23:42;;;;;;;29.58;19.75;;;;;;;11.15;93.42;101975.38;5091325;28;20363;-79
2022/05/20 02:26:12;;;;;;;33.58;21.48;;;;;;;11.14;93.07;101976.38;5088596;28;20024;-80
2022/05/20 02:28:40;;;;;;;;;;;;;;;11.27;92.14;101964.88;5074051;28;20122;-79
2022/05/20 02:31:12;;;;;;;34.22;24.35;;;;;;;11.14;92.93;101954.84;5084250;28;19912;-79
2022/05/20 02:33:38;;;;;;;34.80;23.00;;;;;;;11.13;93.03;101957.63;5109584;28;20440;-79
2022/05/20 02:36:07;;;;;;;31.90;22.88;;;;;;;11.08;92.63;101968.63;5090671;28;20035;-79
2022/05/20 02:38:32;;;;;;;36.75;23.23;;;;;;;11.05;92.51;101971.50;5106116;28;20083;-79
2022/05/20 02:40:58;;;;;;;32.17;22.05;;;;;;;11.01;93.13;101980.69;5096593;28;20024;-79
2022/05/20 02:43:23;;;;;;;30.65;20.50;;;;;;;11.01;93.58;101976.19;5101238;28;20050;-80
2022/05/20 02:45:50;;;;;;;32.80;22.52;;;;;;;11.00;93.30;101968.22;5091524;28;20388;-79
2022/05/20 02:48:19;;;;;;;35.00;23.08;;;;;;;11.01;94.17;101954.69;5082750;27;20138;-79
2022/05/20 02:50:44;;;;;;;33.65;24.42;;;;;;;11.00;93.57;101966.38;5085792;28;20035;-79
2022/05/20 02:53:09;;;;;;;34.58;22.15;;;;;;;11.00;93.08;101963.69;5073840;28;20091;-79
2022/05/20 02:55:36;;;;;;;35.42;24.05;;;;;;;10.99;92.90;101969.16;5097622;28;20024;-79
2022/05/20 02:58:02;;;;;;;34.33;22.95;;;;;;;10.95;93.49;101962.22;5072956;28;20036;-79
2022/05/20 03:05:56;;;;;;;28.98;18.85;;;;;;;10.90;93.17;101958.94;5102795;28;20050;-78
2022/05/20 03:08:22;;;;;;;24.88;15.88;;;;;;;10.88;93.60;101952.75;5078948;28;20344;-79
2022/05/20 03:10:47;;;;;;;26.58;16.23;;;;;;;10.83;93.42;101945.84;5084186;28;20028;-79
2022/05/20 03:13:13;;;;;;;24.90;16.00;;;;;;;10.80;93.41;101951.38;5106405;28;20035;-79
2022/05/20 03:15:39;;;;;;;24.17;13.80;;;;;;;10.79;93.47;101944.28;5073241;28;20024;-80
2022/05/20 03:18:06;;;;;;;28.85;17.08;;;;;;;10.79;93.52;101952.34;5082778;27;20137;-80
2022/05/20 03:20:32;;;;;;;29.38;18.45;;;;;;;10.77;93.40;101956.06;5113414;27;20141;-80
2022/05/20 03:22:57;;;;;;;27.35;17.15;;;;;;;10.75;92.93;101949.91;5097399;27;20118;-79
2022/05/20 03:25:22;;;;;;;28.85;17.80;;;;;;;10.79;93.06;101954.16;5095431;28;20123;-79
2022/05/20 03:27:48;;;;;;;29.70;18.30;;;;;;;10.80;93.44;101950.50;5075198;28;20084;-79
2022/05/20 03:30:13;;;;;;;27.38;17.45;;;;;;;10.76;93.56;101944.47;5089540;28;20037;-79
2022/05/20 03:32:39;;;;;;;32.58;17.83;;;;;;;10.75;92.94;101942.72;5072562;28;20114;-79
2022/05/20 03:35:06;;;;;;;30.75;18.65;;;;;;;10.74;93.50;101948.19;5098843;28;20478;-79
2022/05/20 03:37:32;;;;;;;31.88;20.23;;;;;;;10.74;93.12;101949.03;5087059;28;20024;-79
2022/05/20 03:39:57;;;;;;;31.13;18.77;;;;;;;10.75;93.22;101948.09;5087122;28;20039;-79
2022/05/20 03:42:24;;;;;;;34.20;21.33;;;;;;;10.77;93.77;101948.00;5091771;28;20034;-79
2022/05/20 03:44:50;;;;;;;31.27;21.65;;;;;;;10.82;94.33;101949.47;5084626;28;20120;-79
2022/05/20 03:47:17;;;;;;;31.80;21.70;;;;;;;10.89;94.58;101949.13;5110196;28;20039;-80
2022/05/20 03:49:43;;;;;;;30.80;18.10;;;;;;;10.93;95.40;101929.16;5123295;27;20038;-80
2022/05/20 03:52:10;;;;;;;28.05;16.67;;;;;;;10.97;95.67;101930.72;5094880;28;20028;-79
2022/05/20 03:54:36;;;;;;;28.25;17.70;;;;;;;10.97;95.51;101931.59;5091184;28;20382;-79
2022/05/20 03:57:03;;;;;;;27.30;15.25;;;;;;;11.00;95.18;101933.25;5099283;28;20467;-79
2022/05/20 03:59:29;;;;;;;27.90;16.30;;;;;;;11.01;95.11;101927.78;5094533;28;20055;-79
2022/05/20 04:01:58;;;;;;;25.02;13.23;;;;;;;10.99;94.45;101912.66;5081871;27;20495;-79
2022/05/20 04:04:26;;;;;;;21.27;11.40;;;;;;;10.89;94.32;101906.09;5088657;28;20032;-79
2022/05/20 04:06:51;;;;;;;21.05;11.32;;;;;;;10.83;93.91;101908.19;5096978;28;20035;-78
2022/05/20 04:09:16;;;;;;;22.58;12.10;;;;;;;10.80;94.14;101907.47;5109426;28;20035;-78
2022/05/20 04:11:42;;;;;;;25.60;12.85;;;;;;;10.75;94.34;101910.44;5086841;28;20682;-78
2022/05/20 04:14:08;;;;;;;24.23;12.65;;;;;;;10.71;94.37;101905.34;5097863;28;20093;-79
2022/05/20 04:16:33;;;;;;;26.00;16.55;;;;;;;10.70;94.80;101900.91;5109645;28;20479;-79
2022/05/20 04:18:59;;;;;;;29.63;17.15;;;;;;;10.72;95.47;101899.88;5079994;28;20113;-79
2022/05/20 04:21:24;;;;;;;29.17;17.45;;;;;;;10.73;95.18;101900.72;5113532;28;20106;-79
2022/05/20 04:23:50;;;;;;;27.77;17.02;;;;;;;10.74;95.30;101894.41;5080637;28;20024;-79
2022/05/20 04:26:16;;;;;;;26.48;16.40;;;;;;;10.76;95.58;101900.53;5091949;28;20030;-79
2022/05/20 04:28:41;;;;;;;28.98;18.73;;;;;;;10.81;96.04;101906.53;5107981;28;20031;-80
2022/05/20 04:31:09;;;;;;;31.40;19.35;;;;;;;10.83;96.27;101900.13;5092651;28;20383;-79
2022/05/20 04:33:34;;;;;;;35.13;21.58;;;;;;;10.89;95.94;101900.72;5078865;28;20023;-79
2022/05/20 04:36:00;;;;;;;35.63;24.98;;;;;;;10.96;96.96;101896.72;5083717;28;20104;-79
2022/05/20 04:38:26;;;;;;;33.80;23.58;;;;;;;11.02;97.66;101897.25;5093639;28;20032;-79
2022/05/20 04:49:08;;;;;;;42.00;28.40;;;;;;;11.27;98.25;101916.44;5097130;27;20410;-79
2022/05/20 04:51:34;;;;;;;34.03;25.83;;;;;;;11.33;98.83;101929.53;5092349;28;20020;-80
2022/05/20 04:56:43;;;;;;;43.08;32.28;;;;;;;11.45;99.22;101931.50;5109166;28;20066;-79
2022/05/20 04:59:08;;;;;;;49.67;39.08;;;;;;;11.60;100.00;101928.84;5078644;28;20032;-79
2022/05/20 05:01:33;;;;;;;49.83;36.70;;;;;;;11.68;100.00;101927.44;5096173;27;20486;-76
2022/05/20 05:03:58;;;;;;;46.78;36.88;;;;;;;11.80;100.00;101927.63;5091042;28;20043;-76
2022/05/20 05:06:24;;;;;;;51.17;37.45;;;;;;;11.93;100.00;101928.63;5102399;28;20701;-76
2022/05/20 05:08:49;;;;;;;54.28;40.42;;;;;;;12.03;100.00;101923.53;5105053;27;20672;-76
2022/05/20 05:11:14;;;;;;;53.85;39.17;;;;;;;12.15;100.00;101925.50;5109852;28;20024;-77
2022/05/20 05:13:39;;;;;;;55.10;43.10;;;;;;;12.22;100.00;101921.41;5109476;28;20047;-77
2022/05/20 05:16:08;;;;;;;54.97;41.42;;;;;;;12.32;100.00;101920.84;5110786;28;20035;-76
2022/05/20 05:18:36;;;;;;;57.40;42.63;;;;;;;12.41;100.00;101933.72;5107419;28;20579;-76
2022/05/20 05:21:01;;;;;;;59.28;43.90;;;;;;;12.51;100.00;101925.94;5109983;27;20300;-76
2022/05/20 05:23:27;;;;;;;53.58;42.00;;;;;;;12.59;100.00;101924.47;5114636;27;20020;-76
2022/05/20 05:25:52;;;;;;;55.47;41.70;;;;;;;12.69;100.00;101934.66;5111003;27;20147;-76
2022/05/20 05:28:18;;;;;;;53.40;41.10;;;;;;;12.75;100.00;101932.44;5099398;27;20066;-76
2022/05/20 05:30:48;;;;;;;52.45;40.42;;;;;;;12.81;100.00;101916.81;5082194;28;20864;-76
2022/05/20 05:33:14;;;;;;;56.35;42.67;;;;;;;12.88;100.00;101921.69;5088444;28;20047;-76
2022/05/20 05:35:39;;;;;;;53.55;40.05;;;;;;;12.90;100.00;101906.28;5108267;27;20133;-76
2022/05/20 05:38:05;;;;;;;55.05;39.90;;;;;;;12.91;100.00;101901.72;5084010;28;20027;-76
2022/05/20 05:40:32;;;;;;;52.95;38.97;;;;;;;12.93;100.00;101892.56;5086297;28;20028;-76
2022/05/20 05:42:59;;;;;;;51.03;38.97;;;;;;;12.99;100.00;101891.31;5106749;28;20393;-76
2022/05/20 05:45:26;;;;;;;56.92;40.83;;;;;;;13.06;100.00;101897.13;5079650;28;20103;-76
2022/05/20 05:47:55;;;;;;;46.58;38.55;;;;;;;13.13;100.00;101890.34;5079400;27;20296;-76
2022/05/20 05:50:20;;;;;;;48.58;35.90;;;;;;;13.19;99.54;101900.78;5092259;28;20048;-76
2022/05/20 05:52:46;;;;;;;42.60;33.80;;;;;;;13.24;99.50;101889.66;5072495;28;20024;-76
2022/05/20 05:55:12;;;;;;;45.40;33.97;;;;;;;13.28;99.41;101883.09;5098500;28;20402;-76
2022/05/20 05:57:37;;;;;;;44.65;33.13;;;;;;;13.35;99.14;101883.53;5100378;28;20051;-76
2022/05/20 06:00:04;;;;;;;41.55;32.78;;;;;;;13.40;98.31;101897.59;5072404;27;20035;-76
2022/05/20 06:02:30;;;;;;;41.50;29.65;;;;;;;13.45;97.73;101892.75;5101326;27;20383;-76
2022/05/20 06:04:55;;;;;;;40.20;28.70;;;;;;;13.50;96.78;101893.31;5094968;28;20023;-77
2022/05/20 06:07:20;;;;;;;41.53;29.38;;;;;;;13.55;97.86;101891.13;5073245;28;20075;-77
2022/05/20 06:09:46;;;;;;;43.47;30.35;;;;;;;13.60;97.40;101894.38;5077704;28;20040;-77
2022/05/20 06:12:12;;;;;;;44.03;28.75;;;;;;;13.67;96.92;101885.84;5093965;28;20032;-77
2022/05/20 06:14:38;;;;;;;40.08;26.92;;;;;;;13.71;95.99;101885.53;5092112;28;20023;-78
2022/05/20 06:17:04;;;;;;;37.55;27.42;;;;;;;13.77;96.88;101878.84;5075565;28;20077;-77
2022/05/20 06:19:29;;;;;;;33.70;24.27;;;;;;;13.82;94.58;101882.06;5112345;27;20043;-77
2022/05/20 06:21:55;;;;;;;35.40;24.33;;;;;;;13.89;96.09;101885.19;5101512;28;20129;-77
2022/05/20 06:24:20;;;;;;;37.42;25.85;;;;;;;13.96;96.90;101889.19;5092306;28;20036;-77
2022/05/20 06:26:46;;;;;;;34.63;23.92;;;;;;;14.02;96.58;101886.06;5101237;28;20696;-77
2022/05/20 06:29:12;;;;;;;35.60;23.05;;;;;;;14.10;95.63;101880.09;5075783;28;20031;-77
2022/05/20 06:31:37;;;;;;;33.20;20.58;;;;;;;14.14;92.98;101877.09;5078424;28;20440;-77
2022/05/20 06:34:02;;;;;;;31.08;20.48;;;;;;;14.23;92.02;101874.66;5091824;28;20081;-77
2022/05/20 06:41:57;;;;;;;27.23;17.08;;;;;;;14.32;90.83;101845.13;5095487;28;20132;-77
2022/05/20 06:44:24;;;;;;;27.38;16.23;;;;;;;14.39;87.55;101847.38;5080016;28;20677;-77
2022/05/20 06:46:49;;;;;;;28.00;14.85;;;;;;;14.44;85.29;101856.88;5073568;28;20510;-77
2022/05/20 06:49:14;;;;;;;26.00;13.90;;;;;;;14.50;86.06;101851.00;5117916;27;20027;-78
2022/05/20 06:51:40;;;;;;;29.90;15.52;;;;;;;14.55;86.21;101850.66;5132299;27;20015;-77
2022/05/20 06:54:09;;;;;;;27.92;16.02;;;;;;;14.59;85.69;101852.16;5131251;27;20106;-77
2022/05/20 06:56:36;;;;;;;28.20;16.15;;;;;;;14.61;85.91;101843.94;5113569;27;20079;-77
2022/05/20 06:59:05;;;;;;;27.48;15.95;;;;;;;14.62;85.05;101843.84;5114129;27;20031;-77
2022/05/20 07:01:31;;;;;;;27.23;16.15;;;;;;;14.68;84.82;101846.13;5132286;27;20055;-77
2022/05/20 07:03:57;;;;;;;26.77;15.27;;;;;;;14.77;86.42;101844.53;5132619;27;20443;-77
2022/05/20 07:06:24;;;;;;;28.45;16.70;;;;;;;14.89;85.84;101842.78;5113556;27;20030;-78
2022/05/20 07:08:49;;;;;;;27.90;15.40;;;;;;;14.99;85.75;101845.63;5084172;28;20143;-78
2022/05/20 07:11:18;;;;;;;27.75;16.52;;;;;;;15.07;84.20;101840.50;5110949;28;20055;-77
2022/05/20 07:13:44;;;;;;;28.23;14.52;;;;;;;15.14;84.62;101828.22;5076958;28;20540;-76
2022/05/20 07:16:09;;;;;;;26.60;16.33;;;;;;;15.24;85.40;101828.34;5093438;28;20062;-75
2022/05/20 07:18:35;;;;;;;27.17;15.30;;;;;;;15.31;84.43;101824.19;5107329;28;20067;-76
2022/05/20 07:21:01;;;;;;;26.80;14.35;;;;;;;15.42;84.79;101814.34;5082739;28;20790;-78
2022/05/20 07:23:29;;;;;;;24.75;14.02;;;;;;;15.45;83.38;101816.84;5091925;28;20024;-78
2022/05/20 07:25:54;;;;;;;25.55;14.85;;;;;;;15.53;82.13;101815.25;5078961;28;20027;-77
2022/05/20 07:28:20;;;;;;;23.27;13.45;;;;;;;15.62;81.93;101819.06;5097735;28;20015;-77
2022/05/20 07:30:45;;;;;;;25.65;13.80;;;;;;;15.71;82.50;101810.22;5091587;28;20118;-77
2022/05/20 07:33:11;;;;;;;25.67;13.88;;;;;;;15.81;81.29;101806.78;5091236;28;20374;-77
2022/05/20 07:35:38;;;;;;;23.48;12.27;;;;;;;15.90;80.85;101806.03;5072820;28;20069;-77
2022/05/20 07:38:04;;;;;;;22.73;11.93;;;;;;;16.00;80.47;101812.47;5090957;28;20115;-77
2022/05/20 07:40:29;;;;;;;21.48;10.23;;;;;;;16.07;77.70;101813.66;5098889;28;20023;-78
2022/05/20 07:42:55;;;;;;;20.88;10.15;;;;;;;16.16;77.48;101811.22;5110727;28;20052;-78
2022/05/20 07:45:20;;;;;;;23.50;11.10;;;;;;;16.22;76.54;101803.44;5090800;28;20024;-81
2022/05/20 07:47:46;;;;;;;23.02;10.30;;;;;;;16.29;75.36;101781.22;5073186;28;20066;-81
2022/05/20 07:50:12;;;;;;;22.58;9.18;;;;;;;16.37;75.92;101779.59;5112924;27;20031;-81
2022/05/20 07:55:31;;;;;;;21.83;9.15;;;;;;;16.51;76.46;101764.88;5127210;28;20510;-81
2022/05/20 07:57:57;;;;;;;27.55;9.48;;;;;;;16.63;73.13;101773.81;5092821;28;20042;-81
2022/05/20 08:00:23;;;;;;;21.50;8.80;;;;;;;16.72;74.59;101773.06;5091650;28;20043;-78
2022/05/20 08:02:51;;;;;;;21.55;8.90;;;;;;;16.81;72.29;101765.13;5111081;28;20111;-79
2022/05/20 08:05:20;;;;;;;23.15;9.75;;;;;;;16.88;70.34;101758.19;5092728;28;20479;-81
2022/05/20 08:07:46;;;;;;;20.17;8.68;;;;;;;16.93;71.64;101753.25;5111255;28;20027;-80
2022/05/20 08:10:19;;;;;;;22.20;9.05;;;;;;;17.00;70.10;101759.88;5092691;28;20032;-80
2022/05/20 08:12:45;;;;;;;26.20;8.68;;;;;;;17.02;69.31;101748.88;5111236;28;20845;-80
2022/05/20 08:15:11;;;;;;;23.95;9.50;;;;;;;17.08;67.96;101762.78;5111394;28;20034;-80
2022/05/20 08:17:40;;;;;;;23.63;8.52;;;;;;;17.21;71.38;101759.84;5110229;28;20047;-80
2022/05/20 08:20:10;;;;;;;23.35;8.82;;;;;;;17.25;68.33;101761.31;5093256;28;20131;-80
2022/05/20 08:22:36;;;;;;;17.83;7.88;;;;;;;17.32;69.60;101755.34;5072000;28;20036;-80
2022/05/20 08:25:03;;;;;;;19.02;8.45;;;;;;;17.39;69.06;101751.94;5072292;28;20110;-80
2022/05/20 08:27:30;;;;;;;18.98;7.75;;;;;;;17.42;68.28;101748.09;5072307;28;20150;-81
2022/05/20 08:29:56;;;;;;;20.40;8.73;;;;;;;17.44;66.59;101741.53;5090697;28;20561;-80
2022/05/20 08:32:22;;;;;;;19.70;8.52;;;;;;;17.50;67.10;101741.97;5088992;28;20040;-78
2022/05/20 08:34:48;;;;;;;21.60;9.63;;;;;;;17.50;66.04;101733.81;5100403;28;20031;-79
2022/05/20 08:37:14;;;;;;;21.25;9.68;;;;;;;17.51;66.66;101741.88;5111572;28;20102;-78
2022/05/20 08:39:40;;;;;;;24.00;10.32;;;;;;;17.51;66.74;101721.97;5096354;28;20053;-77
2022/05/20 08:42:13;;;;;;;19.65;9.27;;;;;;;17.51;67.94;101713.81;5096218;28;20020;-78
2022/05/20 08:44:39;;;;;;;21.48;9.55;;;;;;;17.51;67.35;101702.94;5096347;28;20023;-78
2022/05/20 08:47:31;;;;;;;20.30;9.52;;;;;;;17.58;70.29;101693.25;5114583;28;20084;-78
2022/05/20 08:49:59;;;;;;;21.20;10.45;;;;;;;17.63;69.35;101682.84;5115076;27;20027;-78
2022/05/20 08:52:26;;;;;;;24.50;11.18;;;;;;;17.71;67.37;101677.53;5134894;27;20050;-78
2022/05/20 08:54:52;;;;;;;21.95;10.60;;;;;;;17.79;67.91;101674.16;5116495;27;20031;-78
2022/05/20 08:57:25;;;;;;;24.80;10.38;;;;;;;17.88;70.02;101666.97;5107060;27;20053;-78
2022/05/20 08:59:51;;;;;;;18.73;8.98;;;;;;;17.98;68.61;101681.50;5120620;27;20032;-78
2022/05/20 09:02:16;;;;;;;22.20;11.25;;;;;;;18.05;69.09;101688.09;5111555;28;20024;-78
2022/05/20 09:04:41;;;;;;;22.60;11.50;;;;;;;18.06;66.32;101689.81;5125260;27;20147;-78
2022/05/20 09:07:12;;;;;;;23.90;12.15;;;;;;;18.13;70.41;101677.38;5100581;28;20019;-78
2022/05/20 09:09:51;;;;;;;23.98;12.82;;;;;;;18.19;66.66;101675.09;5091934;28;20078;-77
2022/05/20 09:12:42;;;;;;;25.02;11.57;;;;;;;18.26;69.24;101670.78;5109448;28;20122;-78
2022/05/20 09:18:05;;;;;;;25.58;14.63;;;;;;;18.30;65.68;101656.75;5106954;27;20038;-78
2022/05/20 09:20:30;;;;;;;23.50;13.25;;;;;;;18.41;67.36;101644.84;5086686;28;20052;-78
2022/05/20 09:23:00;;;;;;;25.00;13.32;;;;;;;18.50;66.14;101645.84;5094311;28;20119;-78
2022/05/20 09:25:27;;;;;;;;;;;;;;;18.51;68.53;101637.53;5084324;28;20020;-78
2022/05/20 09:28:12;;;;;;;25.40;14.02;;;;;;;18.52;66.44;101628.38;5079126;28;20318;-78
2022/05/20 09:30:40;;;;;;;24.88;13.05;;;;;;;18.64;68.60;101595.56;5095273;28;20118;-78
2022/05/20 09:33:22;;;;;;;23.38;12.63;;;;;;;18.72;67.50;101608.41;5113513;28;20065;-78
2022/05/20 09:36:00;;;;;;;26.02;13.93;;;;;;;18.79;69.04;101612.28;5093517;28;20035;-78
2022/05/20 09:38:36;;;;;;;26.08;14.30;;;;;;;18.85;69.51;101612.53;5102262;28;20489;-78
2022/05/20 09:41:20;;;;;;;29.17;15.13;;;;;;;18.91;67.21;101604.81;5112286;28;20019;-78
2022/05/20 09:43:57;;;;;;;33.05;16.70;;;;;;;19.04;67.54;101598.00;5086070;28;20502;-80
2022/05/20 09:46:50;;;;;;;27.02;17.05;;;;;;;19.12;68.48;101586.38;5093110;28;20063;-79
2022/05/20 09:49:22;;;;;;;30.13;17.58;;;;;;;19.20;66.52;101582.88;5100328;27;20057;-80
2022/05/20 09:51:58;;;;;;;28.90;16.60;;;;;;;19.26;66.37;101559.63;5133770;27;20506;-78
2022/05/20 09:54:30;;;;;;;26.98;16.85;;;;;;;19.31;65.25;101566.34;5115875;27;20176;-80
2022/05/20 09:57:15;;;;;;;30.73;17.48;;;;;;;19.36;66.98;101553.09;5098641;28;20518;-79
2022/05/20 09:59:50;;;;;;;28.83;15.65;;;;;;;19.47;67.22;101552.00;5078199;28;20448;-79
2022/05/20 10:02:23;;;;;;;30.95;17.20;;;;;;;19.51;65.73;101537.06;5094132;28;20040;-79
2022/05/20 10:04:56;;;;;;;30.92;15.65;;;;;;;19.58;67.00;101526.41;5108481;28;20032;-79
2022/05/20 10:07:37;;;;;;;25.20;14.63;;;;;;;19.63;66.94;101509.56;5092307;28;20397;-79
2022/05/20 10:10:15;;;;;;;25.77;16.20;;;;;;;19.65;67.16;101505.69;5092510;28;20032;-79
2022/05/20 10:12:46;;;;;;;28.90;17.98;;;;;;;19.71;67.17;101509.66;5074350;28;20026;-78
2022/05/20 10:15:17;;;;;;;27.58;16.40;;;;;;;19.70;65.06;101500.59;5092729;28;20024;-79
2022/05/20 10:17:52;;;;;;;27.73;15.85;;;;;;;19.74;67.14;101492.97;5091283;28;20031;-78
2022/05/20 10:20:26;;;;;;;26.38;15.32;;;;;;;19.83;65.59;101485.75;5073821;28;20059;-79
2022/05/20 10:23:15;;;;;;;28.50;15.10;;;;;;;19.88;66.38;101477.94;5073834;28;20028;-78
2022/05/20 10:26:03;;;;;;;26.85;16.50;;;;;;;19.96;68.59;101460.81;5092267;28;20031;-78
2022/05/20 10:34:28;;;;;;;26.75;15.45;;;;;;;20.00;65.61;101445.81;5092445;28;20088;-79
2022/05/20 10:37:01;;;;;;;30.00;15.55;;;;;;;19.99;64.46;101439.50;5091872;28;20028;-79
2022/05/20 10:39:54;;;;;;;25.33;15.27;;;;;;;19.99;65.31;101431.31;5092117;28;20024;-78
2022/05/20 10:42:43;;;;;;;27.42;14.70;;;;;;;20.00;68.00;101424.84;5073728;28;20028;-78
2022/05/20 10:48:36;;;;;;;25.80;14.68;;;;;;;19.93;66.15;101391.03;5100837;27;20513;-78
2022/05/20 10:51:36;;;;;;;33.50;14.25;;;;;;;19.95;66.73;101378.06;5132624;27;20042;-78
2022/05/20 10:54:19;;;;;;;27.33;14.13;;;;;;;19.96;66.09;101376.22;5114065;27;20067;-78
2022/05/20 10:57:09;;;;;;;30.50;15.30;;;;;;;19.95;65.30;101358.97;5132531;27;20159;-78
2022/05/20 10:59:57;;;;;;;27.52;14.43;;;;;;;19.94;65.64;101338.16;5132645;27;20035;-78
2022/05/20 11:03:10;;;;;;;29.00;14.70;;;;;;;19.95;65.17;101314.50;5120997;27;20405;-78
2022/05/20 11:05:53;;;;;;;26.58;14.85;;;;;;;19.95;66.23;101314.50;5062457;27;20046;-78
2022/05/20 11:08:33;;;;;;;27.63;14.35;;;;;;;19.96;65.73;101305.28;5132411;27;20023;-78
2022/05/20 11:11:41;;;;;;;30.45;16.15;;;;;;;19.96;65.84;101291.66;5112461;28;20459;-79
2022/05/20 11:14:27;;;;;;;28.00;15.77;;;;;;;19.99;65.92;101281.25;5093346;28;20032;-79
2022/05/20 11:17:22;;;;;;;33.38;16.42;;;;;;;20.03;66.27;101279.03;5111625;28;20027;-78
2022/05/20 11:20:14;;;;;;;27.67;16.77;;;;;;;20.05;65.37;101293.38;5129323;27;20035;-78
2022/05/20 11:22:49;;;;;;;29.75;17.75;;;;;;;20.06;66.59;101273.28;5113478;27;20050;-78
2022/05/20 11:25:43;;;;;;;28.10;17.42;;;;;;;20.06;66.61;101271.41;5132081;27;20065;-78
2022/05/20 11:28:43;;;;;;;27.50;17.30;;;;;;;20.07;67.87;101264.06;5132140;27;20031;-78
2022/05/20 11:31:24;;;;;;;30.55;18.73;;;;;;;20.08;67.84;101265.78;5116526;27;20038;-78
2022/05/20 11:34:02;;;;;;;29.02;18.60;;;;;;;20.03;67.71;101265.41;5132085;27;20079;-77
2022/05/20 11:36:52;;;;;;;32.80;20.50;;;;;;;20.00;67.69;101261.16;5131870;27;20019;-78
2022/05/20 11:39:33;;;;;;;36.78;22.02;;;;;;;19.96;66.94;101258.91;5132059;27;20027;-79
2022/05/20 11:42:25;;;;;;;31.25;20.98;;;;;;;19.92;68.84;101246.63;5131796;27;20019;-79
2022/05/20 11:45:10;;;;;;;31.50;21.80;;;;;;;19.88;69.30;101243.34;5113472;28;20023;-78
2022/05/20 11:47:57;;;;;;;31.75;22.27;;;;;;;19.82;69.39;101250.31;5131876;27;20026;-78
2022/05/20 11:50:58;;;;;;;33.63;22.85;;;;;;;19.74;69.31;101231.16;5072741;28;20093;-78
2022/05/20 11:53:35;;;;;;;31.75;22.08;;;;;;;19.68;69.54;101196.38;5072842;28;20472;-79
2022/05/20 11:56:06;;;;;;;37.22;24.35;;;;;;;19.62;70.05;101186.09;5072729;28;20140;-78
2022/05/20 11:58:44;;;;;;;34.70;23.08;;;;;;;19.58;71.30;101209.25;5076271;28;20031;-78
2022/05/20 12:01:10;;;;;;;31.45;22.45;;;;;;;19.51;72.63;101207.19;5111215;28;20072;-78